createdAt,value
2018-02-08T00:00:55.000Z,100645
2018-02-08T00:02:55.000Z,100647
2018-02-08T00:03:55.000Z,100637
2018-02-08T00:05:55.000Z,100639
2018-02-08T00:07:54.000Z,100649
2018-02-08T00:08:54.000Z,100646
2018-02-08T00:09:54.000Z,100640
2018-02-08T00:11:54.000Z,100637
2018-02-08T00:13:54.000Z,100637
2018-02-08T00:14:54.000Z,100642
2018-02-08T00:16:54.000Z,100642
2018-02-08T00:17:54.000Z,100653
2018-02-08T00:18:54.000Z,100644
2018-02-08T00:20:54.000Z,100648
2018-02-08T00:21:54.000Z,100645
2018-02-08T00:23:39.000Z,100643
2018-02-08T00:24:54.000Z,100650
2018-02-08T00:26:54.000Z,100646
2018-02-08T00:27:54.000Z,100644
2018-02-08T00:29:54.000Z,100645
2018-02-08T00:31:54.000Z,100642
2018-02-08T00:33:54.000Z,100633
2018-02-08T00:35:54.000Z,100635
2018-02-08T00:37:54.000Z,100633
2018-02-08T00:39:54.000Z,100638
2018-02-08T00:41:54.000Z,100635
2018-02-08T00:43:39.000Z,100635
2018-02-08T00:44:54.000Z,100641
2018-02-08T00:45:54.000Z,100642
2018-02-08T00:47:54.000Z,100644
2018-02-08T00:48:54.000Z,100641
2018-02-08T00:50:54.000Z,100642
2018-02-08T00:52:54.000Z,100640
2018-02-08T00:54:54.000Z,100650
2018-02-08T00:55:54.000Z,100647
2018-02-08T00:57:54.000Z,100645
2018-02-08T00:58:54.000Z,100644
2018-02-08T01:00:54.000Z,100643
2018-02-08T01:02:39.000Z,100647
2018-02-08T01:03:54.000Z,100649
2018-02-08T01:04:54.000Z,100649
2018-02-08T01:05:54.000Z,100648
2018-02-08T01:07:54.000Z,100648
2018-02-08T01:09:54.000Z,100650
2018-02-08T01:11:54.000Z,100650
2018-02-08T01:13:54.000Z,100647
2018-02-08T01:15:54.000Z,100651
2018-02-08T01:17:54.000Z,100654
2018-02-08T01:19:39.000Z,100648
2018-02-08T01:20:54.000Z,100648
2018-02-08T01:21:54.000Z,100652
2018-02-08T01:23:54.000Z,100647
2018-02-08T01:24:54.000Z,100652
2018-02-08T01:26:54.000Z,100645
2018-02-08T01:27:54.000Z,100648
2018-02-08T01:28:54.000Z,100648
2018-02-08T01:30:39.000Z,100641
2018-02-08T01:31:54.000Z,100644
2018-02-08T01:33:23.000Z,100645
2018-02-08T01:34:54.000Z,100643
2018-02-08T01:36:54.000Z,100640
2018-02-08T01:37:54.000Z,100645
2018-02-08T01:39:39.000Z,100648
2018-02-08T01:40:54.000Z,100639
2018-02-08T01:41:54.000Z,100641
2018-02-08T01:43:54.000Z,100649
2018-02-08T01:44:54.000Z,100639
2018-02-08T01:45:54.000Z,100639
2018-02-08T01:47:54.000Z,100637
2018-02-08T01:49:54.000Z,100627
2018-02-08T01:51:54.000Z,100634
2018-02-08T01:52:54.000Z,100632
2018-02-08T01:53:54.000Z,100636
2018-02-08T01:55:54.000Z,100635
2018-02-08T01:57:54.000Z,100637
2018-02-08T01:59:54.000Z,100635
2018-02-08T02:00:54.000Z,100635
2018-02-08T02:02:54.000Z,100638
2018-02-08T02:04:54.000Z,100641
2018-02-08T02:06:54.000Z,100640
2018-02-08T02:07:54.000Z,100637
2018-02-08T02:09:54.000Z,100644
2018-02-08T02:11:54.000Z,100642
2018-02-08T02:12:54.000Z,100642
2018-02-08T02:13:54.000Z,100644
2018-02-08T02:15:54.000Z,100646
2018-02-08T02:16:54.000Z,100643
2018-02-08T02:18:54.000Z,100650
2018-02-08T02:19:54.000Z,100646
2018-02-08T02:21:54.000Z,100648
2018-02-08T02:23:54.000Z,100644
2018-02-08T02:25:54.000Z,100647
2018-02-08T02:26:54.000Z,100650
2018-02-08T02:28:54.000Z,100645
2018-02-08T02:30:54.000Z,100647
2018-02-08T02:32:54.000Z,100652
2018-02-08T02:34:54.000Z,100644
2018-02-08T02:36:54.000Z,100640
2018-02-08T02:37:54.000Z,100640
2018-02-08T02:39:54.000Z,100643
2018-02-08T02:41:54.000Z,100643
2018-02-08T02:42:54.000Z,100634
2018-02-08T02:43:54.000Z,100634
2018-02-08T02:45:54.000Z,100635
2018-02-08T02:47:54.000Z,100639
2018-02-08T02:49:54.000Z,100633
2018-02-08T02:51:54.000Z,100636
2018-02-08T02:52:54.000Z,100638
2018-02-08T02:54:54.000Z,100634
2018-02-08T02:55:54.000Z,100637
2018-02-08T02:57:54.000Z,100633
2018-02-08T02:59:24.000Z,100639
2018-02-08T03:00:54.000Z,100643
2018-02-08T03:01:54.000Z,100640
2018-02-08T03:03:54.000Z,100643
2018-02-08T03:05:54.000Z,100639
2018-02-08T03:07:54.000Z,100638
2018-02-08T03:08:54.000Z,100639
2018-02-08T03:10:54.000Z,100643
2018-02-08T03:12:54.000Z,100645
2018-02-08T03:14:54.000Z,100648
2018-02-08T03:16:54.000Z,100644
2018-02-08T03:18:39.000Z,100646
2018-02-08T03:19:55.000Z,100649
2018-02-08T03:21:55.000Z,100648
2018-02-08T03:23:55.000Z,100655
2018-02-08T03:25:55.000Z,100654
2018-02-08T03:27:55.000Z,100653
2018-02-08T03:29:55.000Z,100652
2018-02-08T03:31:55.000Z,100659
2018-02-08T03:33:55.000Z,100660
2018-02-08T03:35:55.000Z,100661
2018-02-08T03:36:55.000Z,100658
2018-02-08T03:37:55.000Z,100660
2018-02-08T03:39:55.000Z,100654
2018-02-08T03:41:54.000Z,100653
2018-02-08T03:43:55.000Z,100660
2018-02-08T03:45:55.000Z,100660
2018-02-08T03:47:55.000Z,100663
2018-02-08T03:49:55.000Z,100662
2018-02-08T03:51:55.000Z,100656
2018-02-08T03:53:55.000Z,100667
2018-02-08T03:55:39.000Z,100672
2018-02-08T03:56:55.000Z,100672
2018-02-08T03:58:55.000Z,100672
2018-02-08T04:00:55.000Z,100670
2018-02-08T04:01:55.000Z,100667
2018-02-08T04:03:39.000Z,100675
2018-02-08T04:04:55.000Z,100667
2018-02-08T04:06:55.000Z,100678
2018-02-08T04:08:55.000Z,100679
2018-02-08T04:10:39.000Z,100680
2018-02-08T04:11:55.000Z,100678
2018-02-08T04:13:55.000Z,100679
2018-02-08T04:15:55.000Z,100678
2018-02-08T04:17:39.000Z,100679
2018-02-08T04:18:55.000Z,100685
2018-02-08T04:20:54.000Z,100684
2018-02-08T04:21:54.000Z,100676
2018-02-08T04:23:39.000Z,100681
2018-02-08T04:24:54.000Z,100681
2018-02-08T04:26:54.000Z,100686
2018-02-08T04:27:54.000Z,100684
2018-02-08T04:29:54.000Z,100676
2018-02-08T04:31:54.000Z,100682
2018-02-08T04:32:54.000Z,100684
2018-02-08T04:34:39.000Z,100680
2018-02-08T04:35:54.000Z,100682
2018-02-08T04:37:54.000Z,100687
2018-02-08T04:38:54.000Z,100685
2018-02-08T04:40:39.000Z,100687
2018-02-08T04:41:54.000Z,100681
2018-02-08T04:43:54.000Z,100681
2018-02-08T04:44:54.000Z,100684
2018-02-08T04:45:54.000Z,100682
2018-02-08T04:47:54.000Z,100680
2018-02-08T04:48:54.000Z,100680
2018-02-08T04:49:54.000Z,100677
2018-02-08T04:50:54.000Z,100679
2018-02-08T04:52:54.000Z,100685
2018-02-08T04:53:54.000Z,100689
2018-02-08T04:54:54.000Z,100683
2018-02-08T04:55:54.000Z,100686
2018-02-08T04:57:54.000Z,100687
2018-02-08T04:59:54.000Z,100686
2018-02-08T05:01:54.000Z,100680
2018-02-08T05:03:54.000Z,100671
2018-02-08T05:05:54.000Z,100676
2018-02-08T05:07:54.000Z,100672
2018-02-08T05:09:54.000Z,100669
2018-02-08T05:11:54.000Z,100670
2018-02-08T05:13:54.000Z,100671
2018-02-08T05:15:54.000Z,100670
2018-02-08T05:16:54.000Z,100671
2018-02-08T05:18:54.000Z,100678
2018-02-08T05:19:54.000Z,100674
2018-02-08T05:21:54.000Z,100680
2018-02-08T05:22:54.000Z,100681
2018-02-08T05:24:54.000Z,100677
2018-02-08T05:26:54.000Z,100675
2018-02-08T05:27:54.000Z,100675
2018-02-08T05:29:54.000Z,100675
2018-02-08T05:31:54.000Z,100672
2018-02-08T05:32:54.000Z,100674
2018-02-08T05:34:38.000Z,100678
2018-02-08T05:35:54.000Z,100681
2018-02-08T05:37:54.000Z,100676
2018-02-08T05:39:54.000Z,100677
2018-02-08T05:41:54.000Z,100677
2018-02-08T05:42:54.000Z,100674
2018-02-08T05:44:54.000Z,100687
2018-02-08T05:46:54.000Z,100678
2018-02-08T05:48:54.000Z,100684
2018-02-08T05:49:54.000Z,100685
2018-02-08T05:51:38.000Z,100686
2018-02-08T05:53:54.000Z,100691
2018-02-08T05:55:54.000Z,100689
2018-02-08T05:56:54.000Z,100688
2018-02-08T05:58:54.000Z,100694
2018-02-08T05:59:54.000Z,100695
2018-02-08T06:01:54.000Z,100692
2018-02-08T06:03:38.000Z,100695
2018-02-08T06:04:54.000Z,100691
2018-02-08T06:05:54.000Z,100697
2018-02-08T06:07:54.000Z,100690
2018-02-08T06:09:54.000Z,100700
2018-02-08T06:10:54.000Z,100696
2018-02-08T06:12:54.000Z,100704
2018-02-08T06:13:54.000Z,100704
2018-02-08T06:15:54.000Z,100712
2018-02-08T06:16:54.000Z,100708
2018-02-08T06:18:54.000Z,100708
2018-02-08T06:20:54.000Z,100713
2018-02-08T06:22:54.000Z,100714
2018-02-08T06:24:54.000Z,100709
2018-02-08T06:25:54.000Z,100713
2018-02-08T06:26:54.000Z,100717
2018-02-08T06:28:54.000Z,100709
2018-02-08T06:30:54.000Z,100719
2018-02-08T06:31:54.000Z,100720
2018-02-08T06:33:54.000Z,100718
2018-02-08T06:35:54.000Z,100726
2018-02-08T06:36:54.000Z,100725
2018-02-08T06:38:54.000Z,100726
2018-02-08T06:40:39.000Z,100724
2018-02-08T06:41:54.000Z,100728
2018-02-08T06:43:54.000Z,100728
2018-02-08T06:44:54.000Z,100724
2018-02-08T06:45:54.000Z,100725
2018-02-08T06:47:54.000Z,100728
2018-02-08T06:49:39.000Z,100732
2018-02-08T06:50:54.000Z,100727
2018-02-08T06:52:54.000Z,100732
2018-02-08T06:54:54.000Z,100738
2018-02-08T06:55:54.000Z,100739
2018-02-08T06:57:54.000Z,100740
2018-02-08T06:59:39.000Z,100738
2018-02-08T07:00:54.000Z,100746
2018-02-08T07:01:54.000Z,100747
2018-02-08T07:02:54.000Z,100749
2018-02-08T07:04:54.000Z,100762
2018-02-08T07:05:54.000Z,100757
2018-02-08T07:07:54.000Z,100760
2018-02-08T07:08:54.000Z,100766
2018-02-08T07:10:54.000Z,100763
2018-02-08T07:11:54.000Z,100764
2018-02-08T07:12:54.000Z,100758
2018-02-08T07:13:54.000Z,100767
2018-02-08T07:14:54.000Z,100762
2018-02-08T07:16:54.000Z,100765
2018-02-08T07:17:54.000Z,100764
2018-02-08T07:19:54.000Z,100774
2018-02-08T07:20:54.000Z,100764
2018-02-08T07:22:54.000Z,100764
2018-02-08T07:23:54.000Z,100764
2018-02-08T07:25:54.000Z,100758
2018-02-08T07:27:39.000Z,100763
2018-02-08T07:28:54.000Z,100760
2018-02-08T07:29:54.000Z,100757
2018-02-08T07:31:54.000Z,100767
2018-02-08T07:32:54.000Z,100771
2018-02-08T07:34:39.000Z,100770
2018-02-08T07:35:54.000Z,100774
2018-02-08T07:37:54.000Z,100782
2018-02-08T07:39:54.000Z,100780
2018-02-08T07:41:54.000Z,100773
2018-02-08T07:42:54.000Z,100771
2018-02-08T07:43:54.000Z,100772
2018-02-08T07:45:54.000Z,100779
2018-02-08T07:46:54.000Z,100778
2018-02-08T07:48:54.000Z,100780
2018-02-08T07:50:54.000Z,100777
2018-02-08T07:52:39.000Z,100781
2018-02-08T07:53:54.000Z,100783
2018-02-08T07:55:54.000Z,100788
2018-02-08T07:57:54.000Z,100789
2018-02-08T07:58:54.000Z,100780
2018-02-08T08:00:54.000Z,100779
2018-02-08T08:02:54.000Z,100781
2018-02-08T08:04:54.000Z,100783
2018-02-08T08:06:54.000Z,100787
2018-02-08T08:08:54.000Z,100781
2018-02-08T08:10:54.000Z,100779
2018-02-08T08:11:54.000Z,100782
2018-02-08T08:12:54.000Z,100787
2018-02-08T08:14:54.000Z,100792
2018-02-08T08:16:54.000Z,100786
2018-02-08T08:17:54.000Z,100782
2018-02-08T08:18:54.000Z,100783
2018-02-08T08:20:54.000Z,100790
2018-02-08T08:22:54.000Z,100790
2018-02-08T08:24:24.000Z,100790
2018-02-08T08:25:54.000Z,100788
2018-02-08T08:27:54.000Z,100786
2018-02-08T08:29:39.000Z,100791
2018-02-08T08:30:54.000Z,100791
2018-02-08T08:32:54.000Z,100790
2018-02-08T08:33:54.000Z,100790
2018-02-08T08:35:54.000Z,100793
2018-02-08T08:36:54.000Z,100791
2018-02-08T08:38:23.000Z,100791
2018-02-08T08:39:54.000Z,100792
2018-02-08T08:41:54.000Z,100808
2018-02-08T08:43:54.000Z,100798
2018-02-08T08:45:54.000Z,100805
2018-02-08T08:47:54.000Z,100803
2018-02-08T08:48:54.000Z,100801
2018-02-08T08:50:54.000Z,100807
2018-02-08T08:52:54.000Z,100805
2018-02-08T08:54:54.000Z,100808
2018-02-08T08:56:54.000Z,100814
2018-02-08T08:58:54.000Z,100813
2018-02-08T08:59:54.000Z,100812
2018-02-08T09:01:54.000Z,100817
2018-02-08T09:03:54.000Z,100816
2018-02-08T09:05:54.000Z,100816
2018-02-08T09:06:54.000Z,100816
2018-02-08T09:08:54.000Z,100814
2018-02-08T09:09:54.000Z,100816
2018-02-08T09:10:54.000Z,100811
2018-02-08T09:12:54.000Z,100810
2018-02-08T09:14:54.000Z,100810
2018-02-08T09:15:54.000Z,100808
2018-02-08T09:17:39.000Z,100812
2018-02-08T09:18:54.000Z,100804
2018-02-08T09:20:54.000Z,100807
2018-02-08T09:22:54.000Z,100811
2018-02-08T09:24:54.000Z,100810
2018-02-08T09:26:39.000Z,100815
2018-02-08T09:27:54.000Z,100821
2018-02-08T09:29:54.000Z,100823
2018-02-08T09:31:54.000Z,100826
2018-02-08T09:32:54.000Z,100824
2018-02-08T09:34:54.000Z,100818
2018-02-08T09:36:39.000Z,100815
2018-02-08T09:37:54.000Z,100820
2018-02-08T09:39:54.000Z,100816
2018-02-08T09:41:54.000Z,100819
2018-02-08T09:43:54.000Z,100816
2018-02-08T09:44:54.000Z,100810
2018-02-08T09:46:54.000Z,100811
2018-02-08T09:47:54.000Z,100818
2018-02-08T09:49:54.000Z,100813
2018-02-08T09:51:54.000Z,100814
2018-02-08T09:53:54.000Z,100812
2018-02-08T09:54:54.000Z,100820
2018-02-08T09:56:54.000Z,100807
2018-02-08T09:57:54.000Z,100810
2018-02-08T09:59:54.000Z,100810
2018-02-08T10:00:54.000Z,100812
2018-02-08T10:01:54.000Z,100824
2018-02-08T10:03:54.000Z,100816
2018-02-08T10:05:54.000Z,100823
2018-02-08T10:07:54.000Z,100826
2018-02-08T10:09:54.000Z,100820
2018-02-08T10:10:54.000Z,100824
2018-02-08T10:12:54.000Z,100819
2018-02-08T10:13:54.000Z,100822
2018-02-08T10:15:54.000Z,100822
2018-02-08T10:17:54.000Z,100822
2018-02-08T10:19:39.000Z,100822
2018-02-08T10:20:54.000Z,100825
2018-02-08T10:21:54.000Z,100827
2018-02-08T10:23:39.000Z,100817
2018-02-08T10:24:54.000Z,100821
2018-02-08T10:26:39.000Z,100819
2018-02-08T10:27:54.000Z,100812
2018-02-08T10:29:54.000Z,100816
2018-02-08T10:30:54.000Z,100814
2018-02-08T10:32:54.000Z,100810
2018-02-08T10:33:54.000Z,100813
2018-02-08T10:35:54.000Z,100808
2018-02-08T10:36:54.000Z,100807
2018-02-08T10:38:54.000Z,100803
2018-02-08T10:40:39.000Z,100806
2018-02-08T10:41:54.000Z,100804
2018-02-08T10:43:39.000Z,100806
2018-02-08T10:44:54.000Z,100809
2018-02-08T10:45:54.000Z,100803
2018-02-08T10:47:39.000Z,100805
2018-02-08T10:48:54.000Z,100809
2018-02-08T10:50:54.000Z,100804
2018-02-08T10:52:39.000Z,100796
2018-02-08T10:53:54.000Z,100800
2018-02-08T10:55:54.000Z,100800
2018-02-08T10:57:39.000Z,100803
2018-02-08T10:58:54.000Z,100802
2018-02-08T11:00:54.000Z,100801
2018-02-08T11:02:54.000Z,100809
2018-02-08T11:03:54.000Z,100801
2018-02-08T11:04:54.000Z,100796
2018-02-08T11:06:54.000Z,100800
2018-02-08T11:08:24.000Z,100802
2018-02-08T11:09:54.000Z,100807
2018-02-08T11:11:54.000Z,100801
2018-02-08T11:13:54.000Z,100796
2018-02-08T11:14:54.000Z,100798
2018-02-08T11:16:54.000Z,100800
2018-02-08T11:18:54.000Z,100800
2018-02-08T11:20:54.000Z,100798
2018-02-08T11:22:54.000Z,100794
2018-02-08T11:24:54.000Z,100792
2018-02-08T11:25:54.000Z,100789
2018-02-08T11:26:54.000Z,100791
2018-02-08T11:28:54.000Z,100794
2018-02-08T11:30:54.000Z,100799
2018-02-08T11:32:54.000Z,100803
2018-02-08T11:34:24.000Z,100791
2018-02-08T11:35:54.000Z,100794
2018-02-08T11:36:54.000Z,100789
2018-02-08T11:38:54.000Z,100787
2018-02-08T11:39:54.000Z,100785
2018-02-08T11:41:54.000Z,100789
2018-02-08T11:43:54.000Z,100776
2018-02-08T11:45:54.000Z,100776
2018-02-08T11:46:55.000Z,100781
2018-02-08T11:48:55.000Z,100781
2018-02-08T11:49:55.000Z,100776
2018-02-08T11:50:55.000Z,100785
2018-02-08T11:52:55.000Z,100782
2018-02-08T11:54:39.000Z,100779
2018-02-08T11:55:55.000Z,100781
2018-02-08T11:57:55.000Z,100779
2018-02-08T11:58:55.000Z,100781
2018-02-08T12:00:39.000Z,100780
2018-02-08T12:01:55.000Z,100778
2018-02-08T12:03:55.000Z,100783
2018-02-08T12:05:55.000Z,100777
2018-02-08T12:06:55.000Z,100780
2018-02-08T12:08:39.000Z,100783
2018-02-08T12:09:55.000Z,100783
2018-02-08T12:10:55.000Z,100789
2018-02-08T12:12:54.000Z,100791
2018-02-08T12:13:55.000Z,100785
2018-02-08T12:15:55.000Z,100783
2018-02-08T12:17:55.000Z,100786
2018-02-08T12:19:55.000Z,100787
2018-02-08T12:21:55.000Z,100793
2018-02-08T12:22:55.000Z,100782
2018-02-08T12:24:39.000Z,100783
2018-02-08T12:25:55.000Z,100782
2018-02-08T12:26:55.000Z,100770
2018-02-08T12:28:55.000Z,100769
2018-02-08T12:30:55.000Z,100776
2018-02-08T12:31:55.000Z,100770
2018-02-08T12:33:39.000Z,100770
2018-02-08T12:34:55.000Z,100772
2018-02-08T12:36:55.000Z,100761
2018-02-08T12:37:55.000Z,100763
2018-02-08T12:39:39.000Z,100756
2018-02-08T12:40:40.000Z,100759
2018-02-08T12:41:55.000Z,100759
2018-02-08T12:42:55.000Z,100755
2018-02-08T12:44:55.000Z,100762
2018-02-08T12:46:55.000Z,100766
2018-02-08T12:48:39.000Z,100761
2018-02-08T12:49:55.000Z,100761
2018-02-08T12:51:54.000Z,100756
2018-02-08T12:53:54.000Z,100765
2018-02-08T12:55:54.000Z,100757
2018-02-08T12:57:54.000Z,100756
2018-02-08T12:59:54.000Z,100753
2018-02-08T13:00:54.000Z,100752
2018-02-08T13:01:54.000Z,100751
2018-02-08T13:03:54.000Z,100750
2018-02-08T13:05:54.000Z,100753
2018-02-08T13:07:54.000Z,100745
2018-02-08T13:09:54.000Z,100746
2018-02-08T13:10:54.000Z,100746
2018-02-08T13:12:54.000Z,100735
2018-02-08T13:14:54.000Z,100735
2018-02-08T13:16:54.000Z,100740
2018-02-08T13:18:54.000Z,100728
2018-02-08T13:19:54.000Z,100729
2018-02-08T13:21:54.000Z,100725
2018-02-08T13:22:54.000Z,100723
2018-02-08T13:24:54.000Z,100720
2018-02-08T13:26:54.000Z,100709
2018-02-08T13:28:54.000Z,100711
2018-02-08T13:29:54.000Z,100716
2018-02-08T13:31:54.000Z,100712
2018-02-08T13:33:54.000Z,100720
2018-02-08T13:35:39.000Z,100715
2018-02-08T13:36:54.000Z,100714
2018-02-08T13:37:54.000Z,100719
2018-02-08T13:39:54.000Z,100730
2018-02-08T13:41:54.000Z,100722
2018-02-08T13:43:54.000Z,100721
2018-02-08T13:44:54.000Z,100713
2018-02-08T13:46:54.000Z,100720
2018-02-08T13:48:39.000Z,100714
2018-02-08T13:49:39.000Z,100714
2018-02-08T13:50:54.000Z,100715
2018-02-08T13:52:54.000Z,100713
2018-02-08T13:53:55.000Z,100716
2018-02-08T13:55:55.000Z,100716
2018-02-08T13:57:55.000Z,100722
2018-02-08T13:59:55.000Z,100718
2018-02-08T14:01:55.000Z,100718
2018-02-08T14:03:55.000Z,100713
2018-02-08T14:04:55.000Z,100720
2018-02-08T14:06:55.000Z,100709
2018-02-08T14:08:55.000Z,100708
2018-02-08T14:10:55.000Z,100706
2018-02-08T14:12:55.000Z,100706
2018-02-08T14:14:39.000Z,100700
2018-02-08T14:15:55.000Z,100697
2018-02-08T14:17:55.000Z,100700
2018-02-08T14:19:55.000Z,100693
2018-02-08T14:21:39.000Z,100695
2018-02-08T14:22:55.000Z,100696
2018-02-08T14:24:55.000Z,100697
2018-02-08T14:26:55.000Z,100694
2018-02-08T14:28:55.000Z,100693
2018-02-08T14:30:39.000Z,100687
2018-02-08T14:31:55.000Z,100686
2018-02-08T14:33:55.000Z,100688
2018-02-08T14:35:39.000Z,100684
2018-02-08T14:36:55.000Z,100672
2018-02-08T14:37:55.000Z,100662
2018-02-08T14:38:55.000Z,100660
2018-02-08T14:40:39.000Z,100658
2018-02-08T14:41:55.000Z,100661
2018-02-08T14:43:55.000Z,100658
2018-02-08T14:44:55.000Z,100661
2018-02-08T14:46:39.000Z,100660
2018-02-08T14:47:55.000Z,100668
2018-02-08T14:49:55.000Z,100675
2018-02-08T14:51:55.000Z,100673
2018-02-08T14:53:55.000Z,100667
2018-02-08T14:55:55.000Z,100677
2018-02-08T14:57:54.000Z,100667
2018-02-08T14:59:54.000Z,100666
2018-02-08T15:00:54.000Z,100663
2018-02-08T15:02:39.000Z,100663
2018-02-08T15:03:54.000Z,100661
2018-02-08T15:04:54.000Z,100663
2018-02-08T15:06:54.000Z,100662
2018-02-08T15:08:54.000Z,100658
2018-02-08T15:09:54.000Z,100651
2018-02-08T15:11:54.000Z,100657
2018-02-08T15:13:54.000Z,100652
2018-02-08T15:14:54.000Z,100652
2018-02-08T15:16:54.000Z,100655
2018-02-08T15:18:54.000Z,100653
2018-02-08T15:20:54.000Z,100652
2018-02-08T15:22:54.000Z,100650
2018-02-08T15:23:54.000Z,100648
2018-02-08T15:25:54.000Z,100653
2018-02-08T15:27:54.000Z,100654
2018-02-08T15:28:54.000Z,100648
2018-02-08T15:30:54.000Z,100644
2018-02-08T15:32:39.000Z,100649
2018-02-08T15:33:54.000Z,100640
2018-02-08T15:35:54.000Z,100646
2018-02-08T15:37:54.000Z,100637
2018-02-08T15:39:54.000Z,100634
2018-02-08T15:41:54.000Z,100636
2018-02-08T15:43:54.000Z,100636
2018-02-08T15:44:54.000Z,100633
2018-02-08T15:46:39.000Z,100641
2018-02-08T15:47:54.000Z,100641
2018-02-08T15:49:54.000Z,100633
2018-02-08T15:50:54.000Z,100635
2018-02-08T15:52:54.000Z,100633
2018-02-08T15:53:54.000Z,100629
2018-02-08T15:54:54.000Z,100632
2018-02-08T15:56:54.000Z,100631
2018-02-08T15:58:39.000Z,100636
2018-02-08T16:00:54.000Z,100634
2018-02-08T16:02:54.000Z,100640
2018-02-08T16:04:54.000Z,100635
2018-02-08T16:06:54.000Z,100634
2018-02-08T16:07:54.000Z,100632
2018-02-08T16:09:54.000Z,100634
2018-02-08T16:10:54.000Z,100631
2018-02-08T16:12:54.000Z,100631
2018-02-08T16:13:54.000Z,100631
2018-02-08T16:15:54.000Z,100643
2018-02-08T16:17:54.000Z,100632
2018-02-08T16:18:54.000Z,100638
2018-02-08T16:20:54.000Z,100638
2018-02-08T16:22:54.000Z,100640
2018-02-08T16:24:54.000Z,100644
2018-02-08T16:26:54.000Z,100640
2018-02-08T16:27:54.000Z,100646
2018-02-08T16:28:54.000Z,100639
2018-02-08T16:30:54.000Z,100641
2018-02-08T16:32:24.000Z,100642
2018-02-08T16:33:54.000Z,100646
2018-02-08T16:35:54.000Z,100644
2018-02-08T16:37:54.000Z,100643
2018-02-08T16:39:54.000Z,100636
2018-02-08T16:41:39.000Z,100630
2018-02-08T16:42:54.000Z,100641
2018-02-08T16:44:54.000Z,100635
2018-02-08T16:46:54.000Z,100642
2018-02-08T16:47:54.000Z,100643
2018-02-08T16:48:54.000Z,100642
2018-02-08T16:50:54.000Z,100641
2018-02-08T16:52:54.000Z,100637
2018-02-08T16:54:54.000Z,100637
2018-02-08T16:56:39.000Z,100638
2018-02-08T16:57:54.000Z,100640
2018-02-08T16:58:54.000Z,100640
2018-02-08T16:59:54.000Z,100639
2018-02-08T17:01:54.000Z,100639
2018-02-08T17:03:39.000Z,100647
2018-02-08T17:04:54.000Z,100644
2018-02-08T17:06:39.000Z,100649
2018-02-08T17:07:54.000Z,100648
2018-02-08T17:09:39.000Z,100655
2018-02-08T17:10:54.000Z,100652
2018-02-08T17:11:54.000Z,100652
2018-02-08T17:13:55.000Z,100648
2018-02-08T17:15:54.000Z,100650
2018-02-08T17:17:54.000Z,100660
2018-02-08T17:19:54.000Z,100664
2018-02-08T17:21:54.000Z,100662
2018-02-08T17:23:54.000Z,100657
2018-02-08T17:24:54.000Z,100664
2018-02-08T17:26:54.000Z,100657
2018-02-08T17:27:54.000Z,100658
2018-02-08T17:29:54.000Z,100656
2018-02-08T17:30:55.000Z,100657
2018-02-08T17:32:54.000Z,100656
2018-02-08T17:33:55.000Z,100654
2018-02-08T17:35:54.000Z,100654
2018-02-08T17:37:54.000Z,100652
2018-02-08T17:39:54.000Z,100658
2018-02-08T17:41:54.000Z,100655
2018-02-08T17:43:54.000Z,100653
2018-02-08T17:45:39.000Z,100651
2018-02-08T17:46:54.000Z,100645
2018-02-08T17:47:55.000Z,100646
2018-02-08T17:49:54.000Z,100645
2018-02-08T17:51:39.000Z,100648
2018-02-08T17:52:54.000Z,100647
2018-02-08T17:53:55.000Z,100642
2018-02-08T17:55:55.000Z,100647
2018-02-08T17:57:54.000Z,100645
2018-02-08T17:59:55.000Z,100646
2018-02-08T18:01:54.000Z,100647
2018-02-08T18:03:54.000Z,100646
2018-02-08T18:04:55.000Z,100645
2018-02-08T18:06:54.000Z,100646
2018-02-08T18:08:54.000Z,100648
2018-02-08T18:10:54.000Z,100643
2018-02-08T18:12:54.000Z,100646
2018-02-08T18:13:54.000Z,100645
2018-02-08T18:15:54.000Z,100649
2018-02-08T18:17:54.000Z,100645
2018-02-08T18:19:54.000Z,100641
2018-02-08T18:21:39.000Z,100646
2018-02-08T18:22:54.000Z,100642
2018-02-08T18:23:54.000Z,100642
2018-02-08T18:24:54.000Z,100648
2018-02-08T18:26:54.000Z,100641
2018-02-08T18:28:39.000Z,100644
2018-02-08T18:29:54.000Z,100646
2018-02-08T18:31:54.000Z,100651
2018-02-08T18:32:54.000Z,100653
2018-02-08T18:34:39.000Z,100661
2018-02-08T18:35:54.000Z,100661
2018-02-08T18:37:39.000Z,100664
2018-02-08T18:38:54.000Z,100664
2018-02-08T18:39:54.000Z,100665
2018-02-08T18:41:23.000Z,100657
2018-02-08T18:42:54.000Z,100656
2018-02-08T18:44:39.000Z,100663
2018-02-08T18:45:54.000Z,100653
2018-02-08T18:47:39.000Z,100659
2018-02-08T18:48:54.000Z,100653
2018-02-08T18:49:54.000Z,100652
2018-02-08T18:51:39.000Z,100646
2018-02-08T18:52:54.000Z,100644
2018-02-08T18:54:54.000Z,100650
2018-02-08T18:55:54.000Z,100647
2018-02-08T18:57:54.000Z,100649
2018-02-08T18:59:54.000Z,100650
2018-02-08T19:01:54.000Z,100651
2018-02-08T19:03:54.000Z,100647
2018-02-08T19:05:54.000Z,100648
2018-02-08T19:06:54.000Z,100649
2018-02-08T19:07:54.000Z,100645
2018-02-08T19:09:54.000Z,100650
2018-02-08T19:11:54.000Z,100649
2018-02-08T19:13:54.000Z,100657
2018-02-08T19:14:54.000Z,100656
2018-02-08T19:15:54.000Z,100655
2018-02-08T19:17:54.000Z,100655
2018-02-08T19:19:54.000Z,100656
2018-02-08T19:21:39.000Z,100651
2018-02-08T19:22:54.000Z,100657
2018-02-08T19:24:54.000Z,100649
2018-02-08T19:26:54.000Z,100647
2018-02-08T19:28:54.000Z,100648
2018-02-08T19:30:54.000Z,100649
2018-02-08T19:32:54.000Z,100648
2018-02-08T19:34:54.000Z,100652
2018-02-08T19:36:54.000Z,100657
2018-02-08T19:37:54.000Z,100655
2018-02-08T19:39:54.000Z,100658
2018-02-08T19:40:54.000Z,100654
2018-02-08T19:42:54.000Z,100660
2018-02-08T19:43:54.000Z,100654
2018-02-08T19:45:54.000Z,100655
2018-02-08T19:46:54.000Z,100654
2018-02-08T19:48:39.000Z,100648
2018-02-08T19:49:54.000Z,100651
2018-02-08T19:50:54.000Z,100648
2018-02-08T19:52:54.000Z,100649
2018-02-08T19:53:54.000Z,100650
2018-02-08T19:55:39.000Z,100644
2018-02-08T19:56:54.000Z,100647
2018-02-08T19:58:54.000Z,100641
2018-02-08T19:59:54.000Z,100642
2018-02-08T20:00:54.000Z,100644
2018-02-08T20:02:54.000Z,100644
2018-02-08T20:04:39.000Z,100645
2018-02-08T20:05:54.000Z,100639
2018-02-08T20:07:54.000Z,100643
2018-02-08T20:09:39.000Z,100633
2018-02-08T20:10:54.000Z,100638
2018-02-08T20:11:54.000Z,100633
2018-02-08T20:13:54.000Z,100636
2018-02-08T20:14:54.000Z,100633
2018-02-08T20:16:39.000Z,100632
2018-02-08T20:17:54.000Z,100629